createdAt,value
2019-04-10T00:01:36.987Z,35.10
2019-04-10T00:06:43.104Z,34.43
2019-04-10T00:11:49.350Z,34.13
2019-04-10T00:16:54.912Z,32.53
2019-04-10T00:22:00.175Z,30.87
2019-04-10T00:27:06.100Z,31.30
2019-04-10T00:32:11.953Z,31.15
2019-04-10T00:37:23.934Z,32.08
2019-04-10T00:42:25.974Z,30.70
2019-04-10T00:47:31.495Z,29.47
2019-04-10T00:52:36.887Z,29.95
2019-04-10T00:57:42.241Z,30.23
2019-04-10T01:02:47.462Z,30.92
2019-04-10T01:07:53.901Z,29.57
2019-04-10T01:12:59.350Z,28.80
2019-04-10T01:18:04.668Z,28.67
2019-04-10T01:23:09.900Z,27.52
2019-04-10T01:28:16.191Z,25.83
2019-04-10T01:33:21.551Z,26.15
2019-04-10T01:38:27.235Z,25.40
2019-04-10T01:43:33.236Z,23.98
2019-04-10T01:48:38.503Z,23.97
2019-04-10T01:53:44.165Z,24.30
2019-04-10T01:58:50.322Z,23.15
2019-04-10T02:03:55.550Z,22.48
2019-04-10T02:09:00.860Z,22.67
2019-04-10T02:14:07.879Z,23.63
2019-04-10T02:19:14.183Z,20.85
2019-04-10T02:24:19.845Z,21.37
2019-04-10T02:29:26.255Z,21.35
2019-04-10T02:34:32.717Z,22.05
2019-04-10T02:39:44.763Z,21.05
2019-04-10T02:44:45.902Z,19.73
2019-04-10T02:49:52.396Z,19.45
2019-04-10T02:54:57.889Z,20.00
2019-04-10T03:00:05.191Z,20.10
2019-04-10T03:05:13.431Z,19.80
2019-04-10T03:10:27.765Z,18.75
2019-04-10T03:15:27.215Z,19.20
2019-04-10T03:20:34.173Z,18.50
2019-04-10T03:25:39.455Z,19.92
2019-04-10T03:30:46.513Z,18.67
2019-04-10T03:35:54.746Z,19.87
2019-04-10T03:41:00.501Z,18.60
2019-04-10T03:46:05.888Z,19.45
2019-04-10T03:51:12.386Z,19.67
2019-04-10T03:56:18.075Z,19.57
2019-04-10T04:01:23.454Z,19.17
2019-04-10T04:06:29.258Z,19.35
2019-04-10T04:11:34.637Z,19.42
2019-04-10T04:16:40.018Z,19.73
2019-04-10T04:21:45.528Z,19.35
2019-04-10T04:26:50.931Z,20.27
2019-04-10T04:31:56.907Z,19.52
2019-04-10T04:37:02.539Z,18.37
2019-04-10T04:42:07.886Z,19.30
2019-04-10T04:47:13.467Z,18.95
2019-04-10T04:52:21.381Z,19.92
2019-04-10T04:57:27.305Z,18.67
2019-04-10T05:02:32.576Z,19.67
2019-04-10T05:07:39.711Z,21.40
2019-04-10T05:12:45.242Z,20.23
2019-04-10T05:17:51.004Z,19.35
2019-04-10T05:22:56.417Z,19.98
2019-04-10T05:28:01.785Z,20.25
2019-04-10T05:33:08.138Z,20.30
2019-04-10T05:38:13.435Z,20.20
2019-04-10T05:43:20.004Z,18.98
2019-04-10T05:48:26.477Z,20.85
2019-04-10T05:53:32.525Z,19.67
2019-04-10T05:58:38.666Z,19.90
2019-04-10T06:03:45.614Z,21.02
2019-04-10T06:08:52.288Z,21.85
2019-04-10T06:13:57.580Z,21.00
2019-04-10T06:19:03.726Z,20.67
2019-04-10T06:24:09.269Z,20.10
2019-04-10T06:29:14.937Z,20.10
2019-04-10T06:34:20.905Z,19.85
2019-04-10T06:39:26.970Z,20.80
2019-04-10T06:44:32.543Z,21.10
2019-04-10T06:49:38.667Z,20.62
2019-04-10T06:54:44.855Z,20.47
2019-04-10T06:59:50.480Z,19.95
2019-04-10T07:05:05.000Z,19.47
2019-04-10T07:10:19.675Z,19.50
2019-04-10T07:15:12.512Z,18.53
2019-04-10T07:20:20.900Z,18.97
2019-04-10T07:25:26.400Z,19.60
2019-04-10T07:30:31.945Z,17.73
2019-04-10T07:35:38.304Z,16.67
2019-04-10T07:40:44.920Z,17.92
2019-04-10T07:45:50.352Z,18.42
2019-04-10T07:50:55.850Z,17.00
2019-04-10T07:56:06.156Z,19.83
2019-04-10T08:01:08.164Z,17.93
2019-04-10T08:06:13.475Z,16.85
2019-04-10T08:11:19.769Z,17.37
2019-04-10T08:16:25.443Z,17.33
2019-04-10T08:21:31.661Z,17.17
2019-04-10T08:26:37.158Z,17.05
2019-04-10T08:31:42.403Z,15.43
2019-04-10T08:36:48.031Z,15.83
2019-04-10T08:41:54.385Z,15.90
2019-04-10T08:47:00.193Z,16.15
2019-04-10T08:52:06.494Z,15.57
2019-04-10T08:57:12.214Z,15.53
2019-04-10T09:02:18.050Z,15.60
2019-04-10T09:07:24.264Z,15.98
2019-04-10T09:12:29.679Z,16.87
2019-04-10T09:17:35.530Z,16.00
2019-04-10T09:22:58.018Z,15.70
2019-04-10T09:27:47.877Z,16.30
2019-04-10T09:32:53.512Z,17.05
2019-04-10T09:37:58.792Z,16.10
2019-04-10T09:43:05.015Z,16.87
2019-04-10T09:48:10.622Z,15.72
2019-04-10T09:53:17.087Z,16.27
2019-04-10T09:58:22.415Z,15.53
2019-04-10T10:03:28.213Z,15.32
2019-04-10T10:08:34.239Z,15.28
2019-04-10T10:13:39.543Z,17.50
2019-04-10T10:18:45.729Z,15.53
2019-04-10T10:23:52.038Z,16.17
2019-04-10T10:28:58.575Z,15.70
2019-04-10T10:34:06.026Z,15.67
2019-04-10T10:39:19.405Z,16.25
2019-04-10T10:44:26.551Z,14.77
2019-04-10T10:49:32.762Z,15.07
2019-04-10T10:54:38.000Z,16.37
2019-04-10T10:59:43.931Z,15.17
2019-04-10T11:04:49.222Z,15.00
2019-04-10T11:09:54.507Z,14.63
2019-04-10T11:15:03.488Z,14.78
2019-04-10T11:20:12.709Z,13.00
2019-04-10T11:25:19.520Z,14.10
2019-04-10T11:30:25.018Z,12.30
2019-04-10T11:35:31.661Z,13.48
2019-04-10T11:40:37.141Z,13.70
2019-04-10T11:50:51.095Z,14.03
2019-04-10T11:56:00.319Z,12.70
2019-04-10T12:01:08.469Z,15.20
2019-04-10T12:06:13.663Z,13.58
2019-04-10T12:11:20.654Z,13.65
2019-04-10T12:16:27.273Z,13.07
2019-04-10T12:21:33.691Z,14.10
2019-04-10T12:26:40.893Z,13.70
2019-04-10T12:31:46.172Z,14.68
2019-04-10T12:36:53.314Z,13.78
2019-04-10T12:42:00.081Z,14.50
2019-04-10T12:47:05.943Z,13.93
2019-04-10T12:52:11.960Z,14.85
2019-04-10T12:57:21.074Z,16.27
2019-04-10T13:02:26.532Z,13.67
2019-04-10T13:07:31.982Z,14.53
2019-04-10T13:12:37.716Z,14.47
2019-04-10T13:17:43.722Z,14.07
2019-04-10T13:22:51.341Z,13.15
2019-04-10T13:27:56.718Z,13.45
2019-04-10T13:33:03.077Z,13.03
2019-04-10T13:38:08.829Z,11.93
2019-04-10T13:43:14.219Z,12.20
2019-04-10T13:48:20.769Z,11.80
2019-04-10T13:53:26.556Z,12.17
2019-04-10T13:58:33.151Z,12.93
2019-04-10T14:03:41.166Z,12.97
2019-04-10T14:09:04.700Z,13.28
2019-04-10T14:13:53.981Z,12.82
2019-04-10T14:18:59.501Z,12.35
2019-04-10T14:24:07.245Z,13.65
2019-04-10T14:29:18.502Z,13.68
2019-04-10T14:34:26.181Z,13.03
2019-04-10T14:39:33.495Z,14.38
2019-04-10T14:44:40.928Z,13.75
2019-04-10T14:49:47.484Z,13.88
2019-04-10T14:54:52.818Z,14.18
2019-04-10T14:59:58.118Z,13.43
2019-04-10T15:05:03.775Z,13.90
2019-04-10T15:10:09.866Z,12.47
2019-04-10T15:15:16.400Z,11.90
2019-04-10T15:20:22.906Z,10.93
2019-04-10T15:25:28.279Z,11.15
2019-04-10T15:30:34.705Z,12.27
2019-04-10T15:35:40.140Z,10.10
2019-04-10T15:40:46.166Z,10.30
2019-04-10T15:45:52.315Z,11.10
2019-04-10T15:50:58.096Z,10.65
2019-04-10T15:56:03.579Z,10.85
2019-04-10T16:01:12.292Z,11.50
2019-04-10T16:06:17.868Z,11.33
2019-04-10T16:11:43.819Z,11.53
2019-04-10T16:17:14.977Z,12.53
2019-04-10T16:22:31.230Z,13.00
2019-04-10T16:27:37.669Z,13.38
2019-04-10T16:32:43.944Z,13.75
2019-04-10T16:37:49.545Z,14.37
2019-04-10T16:42:55.208Z,13.88
2019-04-10T16:48:00.926Z,14.07
2019-04-10T16:53:06.417Z,14.03
2019-04-10T16:58:12.301Z,16.23
2019-04-10T17:03:19.730Z,13.53
2019-04-10T17:08:25.231Z,14.13
2019-04-10T17:13:32.790Z,15.55
2019-04-10T17:18:39.264Z,14.38
2019-04-10T17:23:44.888Z,14.93
2019-04-10T17:28:52.499Z,15.48
2019-04-10T17:33:58.692Z,15.38
2019-04-10T17:39:07.020Z,20.23
2019-04-10T17:44:13.707Z,19.03
2019-04-10T17:49:19.437Z,18.42
2019-04-10T17:54:26.821Z,16.42
2019-04-10T17:59:34.264Z,13.98
2019-04-10T18:04:40.091Z,14.90
2019-04-10T18:09:46.454Z,15.32
2019-04-10T18:14:51.829Z,18.37
2019-04-10T18:19:57.220Z,20.20
2019-04-10T18:25:03.488Z,21.25
2019-04-10T18:30:10.001Z,25.90
2019-04-10T18:35:16.420Z,27.00
2019-04-10T18:40:21.882Z,17.13
2019-04-10T18:45:27.981Z,17.32
2019-04-10T18:50:34.108Z,17.10
2019-04-10T18:55:40.537Z,16.73
2019-04-10T19:01:14.173Z,16.48
2019-04-10T19:06:41.182Z,16.80
2019-04-10T19:11:46.815Z,15.63
2019-04-10T19:16:55.170Z,16.80
2019-04-10T19:22:01.968Z,16.37
2019-04-10T19:27:08.071Z,17.80
2019-04-10T19:32:22.607Z,17.42
2019-04-10T19:37:30.376Z,16.57
2019-04-10T19:42:37.541Z,16.95
2019-04-10T19:47:44.340Z,17.00
2019-04-10T19:52:50.760Z,16.20
2019-04-10T19:57:57.464Z,17.75
2019-04-10T20:03:03.734Z,17.00
2019-04-10T20:08:10.221Z,17.52
2019-04-10T20:13:16.706Z,15.65
2019-04-10T20:18:22.911Z,16.48
2019-04-10T20:23:29.881Z,16.85
2019-04-10T20:28:36.602Z,16.77
2019-04-10T20:33:43.090Z,17.30
2019-04-10T20:38:48.486Z,16.63
2019-04-10T20:43:55.317Z,15.93
2019-04-10T20:49:02.630Z,18.30
2019-04-10T20:54:08.628Z,16.37
2019-04-10T20:59:13.987Z,15.93
2019-04-10T21:04:19.786Z,15.83
2019-04-10T21:09:25.802Z,18.55
2019-04-10T21:14:31.774Z,18.03
2019-04-10T21:19:38.630Z,16.02
2019-04-10T21:24:43.968Z,16.23
2019-04-10T21:30:09.333Z,16.47
2019-04-10T21:35:16.750Z,16.70
2019-04-10T21:40:22.783Z,17.10
2019-04-10T21:45:28.323Z,16.37
2019-04-10T21:50:35.516Z,16.05
2019-04-10T21:55:41.671Z,18.57
2019-04-10T22:01:01.371Z,17.90
2019-04-10T22:06:26.294Z,16.67
2019-04-10T22:11:32.875Z,16.80
2019-04-10T22:16:38.488Z,17.07
2019-04-10T22:21:44.190Z,16.35
2019-04-10T22:26:50.149Z,17.20
2019-04-10T22:31:55.667Z,18.32
2019-04-10T22:37:02.207Z,16.25
2019-04-10T22:42:08.308Z,15.63
2019-04-10T22:47:14.744Z,15.95
2019-04-10T22:52:20.274Z,15.43
2019-04-10T22:57:25.518Z,16.43
2019-04-10T23:02:31.976Z,14.85
2019-04-10T23:07:37.769Z,15.80
2019-04-10T23:12:52.192Z,15.83
2019-04-10T23:17:50.797Z,15.38
2019-04-10T23:22:56.750Z,15.15
2019-04-10T23:28:03.105Z,15.55
2019-04-10T23:33:08.549Z,14.87
2019-04-10T23:38:13.942Z,15.70
2019-04-10T23:43:21.175Z,15.13
2019-04-10T23:48:28.654Z,14.33
2019-04-10T23:53:33.922Z,13.90
2019-04-10T23:58:40.225Z,14.40
